Time;durP1;ratioP1;P1;durP2;ratioP2;P2;SDS_P1;SDS_P2;PMS_P1;PMS_P2;Temp;Humidity;BMP_temperature;BMP_pressure;BME280_temperature;BME280_humidity;BME280_pressure;Samples;Min_cycle;Max_cycle;Signal;HPM_P1;HPM_P2
2022/01/03 00:01:14;;;;;;;0.70;0.60;;;10.80;99.90;;;;;;4994055;28;20478;-69
2022/01/03 00:03:40;;;;;;;0.67;0.53;;;10.80;99.90;;;;;;4993986;28;20447;-69
2022/01/03 00:06:06;;;;;;;0.67;0.60;;;10.80;99.90;;;;;;4990569;28;20479;-70
2022/01/03 00:08:31;;;;;;;0.67;0.50;;;10.80;99.90;;;;;;4993025;28;20577;-69
2022/01/03 00:10:57;;;;;;;0.70;0.60;;;10.80;99.90;;;;;;4989036;28;20251;-69
2022/01/03 00:13:24;;;;;;;0.67;0.60;;;10.70;99.90;;;;;;4995186;28;20169;-69
2022/01/03 00:15:52;;;;;;;0.87;0.83;;;10.70;99.90;;;;;;4988850;28;20424;-69
2022/01/03 00:18:18;;;;;;;0.70;0.60;;;10.70;99.90;;;;;;4992704;28;20781;-69
2022/01/03 00:20:51;;;;;;;0.70;0.60;;;10.70;99.90;;;;;;4988677;28;20926;-69
2022/01/03 00:23:21;;;;;;;0.90;0.80;;;10.70;99.90;;;;;;4994247;28;20415;-69
2022/01/03 00:25:51;;;;;;;0.67;0.60;;;10.60;99.90;;;;;;4994249;28;20992;-69
2022/01/03 00:28:29;;;;;;;0.70;0.60;;;10.60;99.90;;;;;;4994374;28;20462;-68
2022/01/03 00:30:55;;;;;;;0.70;0.60;;;10.50;99.90;;;;;;4994260;28;20550;-69
2022/01/03 00:33:22;;;;;;;0.67;0.60;;;10.50;99.90;;;;;;4978525;28;20424;-69
2022/01/03 00:35:53;;;;;;;0.60;0.60;;;10.50;99.90;;;;;;4975848;28;20401;-68
2022/01/03 00:38:21;;;;;;;0.67;0.60;;;10.50;99.90;;;;;;4993754;28;20428;-69
2022/01/03 00:40:47;;;;;;;0.67;0.50;;;10.50;99.90;;;;;;4993689;28;20776;-69
2022/01/03 00:43:16;;;;;;;0.67;0.60;;;10.50;99.90;;;;;;4993354;28;20428;-69
2022/01/03 00:45:41;;;;;;;0.67;0.60;;;10.50;99.90;;;;;;4991145;28;20787;-68
2022/01/03 00:48:09;;;;;;;0.70;0.60;;;10.50;99.90;;;;;;4993659;28;20462;-69
2022/01/03 00:50:35;;;;;;;0.67;0.53;;;10.50;99.90;;;;;;4993452;28;20173;-69
2022/01/03 00:53:02;;;;;;;0.67;0.60;;;10.50;99.90;;;;;;4993191;28;20838;-69
2022/01/03 00:55:27;;;;;;;0.70;0.70;;;10.60;99.90;;;;;;4993238;28;20506;-69
2022/01/03 00:58:13;;;;;;;0.70;0.60;;;10.50;99.90;;;;;;4993315;28;20432;-69
2022/01/03 01:00:41;;;;;;;0.67;0.60;;;10.50;99.90;;;;;;4980629;28;20193;-69
2022/01/03 01:03:18;;;;;;;0.70;0.60;;;10.50;99.90;;;;;;4978250;28;20438;-68
2022/01/03 01:05:49;;;;;;;0.67;0.60;;;10.50;99.90;;;;;;4993371;28;20431;-69
2022/01/03 01:08:26;;;;;;;0.70;0.60;;;10.50;99.90;;;;;;4993065;28;20895;-69
2022/01/03 01:10:54;;;;;;;0.67;0.60;;;10.40;99.90;;;;;;4993268;28;20423;-69
2022/01/03 01:13:21;;;;;;;1.40;1.30;;;10.40;99.90;;;;;;4992141;28;20918;-69
2022/01/03 01:15:46;;;;;;;0.70;0.50;;;10.40;99.90;;;;;;4992830;28;20424;-69
2022/01/03 01:18:12;;;;;;;0.67;0.60;;;10.40;99.90;;;;;;4993388;28;21000;-69
2022/01/03 01:20:39;;;;;;;1.67;1.57;;;10.30;99.90;;;;;;4992021;28;20200;-70
2022/01/03 01:23:07;;;;;;;0.70;0.70;;;10.30;99.90;;;;;;4978186;28;20176;-69
2022/01/03 01:28:03;;;;;;;0.70;0.60;;;10.40;99.90;;;;;;4993527;28;20538;-69
2022/01/03 01:30:29;;;;;;;0.70;0.60;;;10.40;99.90;;;;;;4993380;28;20516;-69
2022/01/03 01:33:16;;;;;;;0.70;0.70;;;10.50;99.90;;;;;;4995480;28;21198;-69
2022/01/03 01:35:46;;;;;;;0.70;0.60;;;10.50;99.90;;;;;;5000299;28;20501;-68
2022/01/03 01:38:22;;;;;;;0.70;0.60;;;10.60;99.90;;;;;;5005864;28;20519;-69
2022/01/03 01:40:54;;;;;;;0.70;0.50;;;10.60;99.90;;;;;;5010825;28;20462;-68
2022/01/03 01:43:41;;;;;;;0.67;0.53;;;10.60;99.90;;;;;;4996864;28;20945;-68
2022/01/03 01:46:16;;;;;;;0.67;0.60;;;10.50;99.90;;;;;;4997465;28;20431;-68
2022/01/03 01:48:44;;;;;;;1.67;1.57;;;10.50;99.90;;;;;;4996830;28;20968;-69
2022/01/03 01:51:12;;;;;;;1.00;0.90;;;10.50;99.90;;;;;;5000252;28;20420;-70
2022/01/03 01:53:53;;;;;;;0.70;0.60;;;10.50;99.90;;;;;;4999984;28;20943;-70
2022/01/03 01:56:23;;;;;;;0.67;0.50;;;10.50;99.90;;;;;;5014612;28;20425;-69
2022/01/03 01:59:12;;;;;;;0.70;0.60;;;10.50;99.90;;;;;;4992234;28;20519;-69
2022/01/03 02:02:02;;;;;;;0.70;0.60;;;10.60;99.90;;;;;;4999912;28;20423;-69
2022/01/03 02:04:40;;;;;;;0.60;0.60;;;10.60;99.90;;;;;;5013945;28;20459;-69
2022/01/03 02:07:30;;;;;;;0.70;0.50;;;10.60;99.90;;;;;;4996639;28;20493;-69
2022/01/03 02:10:07;;;;;;;0.70;0.60;;;10.60;99.90;;;;;;5000566;28;21098;-70
2022/01/03 02:12:41;;;;;;;0.70;0.60;;;10.60;99.90;;;;;;4976346;28;20430;-69
2022/01/03 02:15:14;;;;;;;0.67;0.60;;;10.60;99.90;;;;;;5005527;28;20851;-69
2022/01/03 02:17:40;;;;;;;0.67;0.67;;;10.50;99.90;;;;;;4997128;28;20964;-69
2022/01/03 02:20:09;;;;;;;0.70;0.60;;;10.50;99.90;;;;;;4984952;28;20937;-69
2022/01/03 02:22:37;;;;;;;0.70;0.60;;;10.50;99.90;;;;;;4994570;28;20424;-69
2022/01/03 02:25:03;;;;;;;0.70;0.60;;;10.40;99.90;;;;;;4996676;28;20460;-69
2022/01/03 02:27:30;;;;;;;0.70;0.60;;;10.40;99.90;;;;;;5001613;28;20495;-69
2022/01/03 02:29:56;;;;;;;0.67;0.53;;;10.40;99.90;;;;;;4996210;28;20424;-69
2022/01/03 02:32:21;;;;;;;0.70;0.60;;;10.40;99.90;;;;;;4995198;28;20416;-70
2022/01/03 02:34:47;;;;;;;0.70;0.60;;;10.30;99.90;;;;;;5010764;28;20691;-69
2022/01/03 02:37:13;;;;;;;0.70;0.60;;;10.30;99.90;;;;;;4996352;28;20224;-70
2022/01/03 02:39:38;;;;;;;0.70;0.60;;;10.30;99.90;;;;;;5005333;28;20166;-69
2022/01/03 02:42:04;;;;;;;0.70;0.60;;;10.30;99.90;;;;;;4995067;28;20417;-69
2022/01/03 02:44:30;;;;;;;0.73;0.73;;;10.30;99.90;;;;;;5009212;28;20195;-69
2022/01/03 02:46:55;;;;;;;1.07;0.70;;;10.30;99.90;;;;;;5015346;28;20172;-69
2022/01/03 02:49:21;;;;;;;0.70;0.60;;;10.30;99.90;;;;;;5014898;28;20212;-69
2022/01/03 02:51:46;;;;;;;1.67;1.23;;;10.20;99.90;;;;;;4993564;28;20184;-69
2022/01/03 02:54:14;;;;;;;0.67;0.60;;;10.30;99.90;;;;;;4995766;28;20280;-69
2022/01/03 02:56:42;;;;;;;3.73;1.60;;;10.30;99.90;;;;;;4996803;28;20188;-69
2022/01/03 02:59:15;;;;;;;0.67;0.60;;;10.30;99.90;;;;;;5007267;28;20477;-69
2022/01/03 03:01:47;;;;;;;0.70;0.60;;;10.40;99.90;;;;;;4998990;28;20449;-69
2022/01/03 03:04:13;;;;;;;0.70;0.60;;;10.40;99.90;;;;;;4990112;28;20499;-69
2022/01/03 03:06:39;;;;;;;0.67;0.60;;;10.50;99.90;;;;;;5011659;28;20510;-69
2022/01/03 03:09:07;;;;;;;0.70;0.60;;;10.50;99.90;;;;;;5014830;28;20554;-69
2022/01/03 03:11:34;;;;;;;0.70;0.60;;;10.50;99.90;;;;;;5014946;28;20172;-69
2022/01/03 03:14:00;;;;;;;0.90;0.60;;;10.50;99.90;;;;;;5014359;28;20530;-69
2022/01/03 03:16:26;;;;;;;0.70;0.60;;;10.50;99.90;;;;;;5014554;28;20773;-69
2022/01/03 03:18:51;;;;;;;0.67;0.60;;;10.40;99.90;;;;;;5013820;28;20519;-69
2022/01/03 03:21:17;;;;;;;0.80;0.80;;;10.50;99.90;;;;;;4995495;28;20511;-69
2022/01/03 03:23:43;;;;;;;0.70;0.60;;;10.50;99.90;;;;;;4995273;28;20200;-70
2022/01/03 03:26:10;;;;;;;0.70;0.70;;;10.50;99.90;;;;;;4994153;28;20184;-69
2022/01/03 03:28:36;;;;;;;0.67;0.50;;;10.50;99.90;;;;;;4995282;28;20456;-69
2022/01/03 03:31:02;;;;;;;0.70;0.60;;;10.50;99.90;;;;;;4995526;28;20427;-69
2022/01/03 03:33:32;;;;;;;0.70;0.60;;;10.50;99.90;;;;;;5003267;28;20197;-69
2022/01/03 03:35:59;;;;;;;0.93;0.83;;;10.50;99.90;;;;;;4995168;28;20438;-69
2022/01/03 03:38:25;;;;;;;0.70;0.60;;;10.50;99.90;;;;;;4995497;28;20424;-69
2022/01/03 03:40:52;;;;;;;0.70;0.60;;;10.40;99.90;;;;;;4995380;28;20428;-69
2022/01/03 03:43:18;;;;;;;0.67;0.60;;;10.40;99.90;;;;;;4995674;28;20461;-68
2022/01/03 03:45:45;;;;;;;0.67;0.60;;;10.30;99.90;;;;;;4994848;28;20432;-69
2022/01/03 03:48:11;;;;;;;0.70;0.60;;;10.30;99.90;;;;;;4995202;28;20282;-69
2022/01/03 03:50:37;;;;;;;0.83;0.83;;;10.30;99.90;;;;;;4994058;28;20451;-69
2022/01/03 03:53:03;;;;;;;0.70;0.63;;;10.20;99.90;;;;;;4994588;28;20169;-69
2022/01/03 03:55:29;;;;;;;0.67;0.60;;;10.20;99.90;;;;;;4993318;28;20463;-69
2022/01/03 03:57:54;;;;;;;0.70;0.60;;;10.20;99.90;;;;;;4994801;28;20435;-69
2022/01/03 04:00:20;;;;;;;1.60;1.50;;;10.20;99.90;;;;;;4994924;28;20630;-69
2022/01/03 04:02:46;;;;;;;0.80;0.80;;;10.10;99.90;;;;;;4992510;28;20271;-70
2022/01/03 04:05:12;;;;;;;0.70;0.60;;;10.20;99.90;;;;;;4998359;28;20283;-70
2022/01/03 04:07:38;;;;;;;0.67;0.60;;;10.10;99.90;;;;;;5013881;28;20463;-69
2022/01/03 04:10:05;;;;;;;0.60;0.60;;;10.20;99.90;;;;;;5014093;28;20477;-69
2022/01/03 04:12:31;;;;;;;0.70;0.60;;;10.10;99.90;;;;;;5013809;28;20215;-69
2022/01/03 04:14:57;;;;;;;0.70;0.57;;;10.10;99.90;;;;;;5010592;28;20443;-69
2022/01/03 04:17:22;;;;;;;0.90;0.60;;;10.10;99.90;;;;;;4994617;28;20201;-69
2022/01/03 04:19:48;;;;;;;1.43;1.33;;;10.00;99.90;;;;;;5003214;28;20176;-69
2022/01/03 04:22:13;;;;;;;1.10;1.10;;;10.00;99.90;;;;;;5008737;28;20641;-70
2022/01/03 04:24:39;;;;;;;0.80;0.80;;;10.10;99.90;;;;;;5001739;28;20196;-69
2022/01/03 04:27:04;;;;;;;1.00;1.00;;;10.10;99.90;;;;;;5013242;28;20176;-69
2022/01/03 04:29:31;;;;;;;2.20;1.43;;;10.00;99.90;;;;;;5013754;28;20212;-70
2022/01/03 04:31:56;;;;;;;0.70;0.60;;;10.00;99.90;;;;;;5011199;28;20236;-69
2022/01/03 04:34:22;;;;;;;0.77;0.73;;;10.00;99.90;;;;;;4994090;28;20439;-69
2022/01/03 04:36:48;;;;;;;0.70;0.60;;;10.00;99.90;;;;;;4993703;28;20192;-69
2022/01/03 04:39:13;;;;;;;1.13;1.07;;;10.00;99.90;;;;;;4987795;28;20193;-69
2022/01/03 04:41:39;;;;;;;0.90;0.90;;;10.10;99.90;;;;;;5009980;28;20188;-69
2022/01/03 04:44:05;;;;;;;0.70;0.60;;;10.10;99.90;;;;;;4994009;28;20658;-69
2022/01/03 04:46:32;;;;;;;0.70;0.60;;;10.00;99.90;;;;;;5000494;28;20545;-69
2022/01/03 04:48:58;;;;;;;0.70;0.60;;;10.10;99.90;;;;;;5028025;28;20466;-69
2022/01/03 04:51:24;;;;;;;0.70;0.60;;;10.10;99.90;;;;;;5013207;28;20473;-69
2022/01/03 04:53:49;;;;;;;0.70;0.60;;;10.10;99.90;;;;;;4995299;28;20294;-69
2022/01/03 04:56:16;;;;;;;0.67;0.50;;;10.00;99.90;;;;;;4993302;28;20191;-69
2022/01/03 04:58:42;;;;;;;0.70;0.60;;;10.00;99.90;;;;;;4994896;28;20661;-69
2022/01/03 05:01:09;;;;;;;0.67;0.60;;;10.00;99.90;;;;;;4992560;28;20428;-69
2022/01/03 05:03:35;;;;;;;0.67;0.60;;;10.00;99.90;;;;;;5000654;28;20434;-69
2022/01/03 05:06:02;;;;;;;0.70;0.60;;;10.10;99.90;;;;;;4984918;28;20451;-69
2022/01/03 05:08:29;;;;;;;0.70;0.60;;;10.00;99.90;;;;;;4993433;28;20459;-70
2022/01/03 05:10:55;;;;;;;0.70;0.70;;;10.00;99.90;;;;;;4994518;28;20524;-69
2022/01/03 05:13:21;;;;;;;0.70;0.60;;;10.00;99.90;;;;;;5006631;28;20420;-69
2022/01/03 05:15:47;;;;;;;0.70;0.60;;;9.90;99.90;;;;;;4991827;28;20427;-69
2022/01/03 05:18:13;;;;;;;0.70;0.60;;;9.90;99.90;;;;;;4992490;28;20200;-69
2022/01/03 05:20:39;;;;;;;4.43;2.67;;;10.00;99.90;;;;;;5008261;28;20427;-68
2022/01/03 05:23:04;;;;;;;1.03;1.03;;;10.00;99.90;;;;;;5012858;28;20433;-70
2022/01/03 05:25:30;;;;;;;0.70;0.60;;;10.00;99.90;;;;;;5003917;28;20201;-69
2022/01/03 05:27:55;;;;;;;1.07;0.97;;;10.10;99.90;;;;;;4992609;28;20284;-70
2022/01/03 05:30:21;;;;;;;0.67;0.60;;;10.10;99.90;;;;;;4992734;28;20264;-70
2022/01/03 05:32:46;;;;;;;0.70;0.70;;;10.10;99.90;;;;;;4992624;28;20181;-69
2022/01/03 05:35:12;;;;;;;0.80;0.70;;;10.20;99.90;;;;;;4982394;28;20196;-69
2022/01/03 05:37:38;;;;;;;0.70;0.60;;;10.20;99.90;;;;;;4992613;28;20183;-69
2022/01/03 05:40:05;;;;;;;0.67;0.60;;;10.20;99.90;;;;;;4993540;28;20181;-70
2022/01/03 05:42:31;;;;;;;0.70;0.60;;;10.20;99.90;;;;;;5004152;28;20672;-68
2022/01/03 05:44:57;;;;;;;0.80;0.80;;;10.10;99.90;;;;;;4993148;28;20448;-70
2022/01/03 05:47:23;;;;;;;0.67;0.60;;;10.10;99.90;;;;;;4981983;28;20180;-68
2022/01/03 05:49:48;;;;;;;0.70;0.60;;;10.10;99.90;;;;;;4992522;28;20424;-69
2022/01/03 05:52:14;;;;;;;0.70;0.60;;;10.10;99.90;;;;;;4994783;28;20185;-70
2022/01/03 05:54:39;;;;;;;0.70;0.70;;;10.10;99.90;;;;;;5011718;28;20215;-70
2022/01/03 05:57:05;;;;;;;0.70;0.60;;;10.00;99.90;;;;;;5000215;28;20179;-69
2022/01/03 05:59:31;;;;;;;0.70;0.60;;;10.00;99.90;;;;;;4986859;28;20188;-69
2022/01/03 06:01:56;;;;;;;0.70;0.50;;;10.00;99.90;;;;;;4992759;28;20264;-69
2022/01/03 06:04:24;;;;;;;0.70;0.60;;;10.00;99.90;;;;;;4990994;28;20196;-69
2022/01/03 06:07:05;;;;;;;0.70;0.70;;;10.00;99.90;;;;;;4991626;28;20192;-70
2022/01/03 06:09:31;;;;;;;0.70;0.60;;;10.00;99.90;;;;;;4990579;28;20455;-69
2022/01/03 06:11:58;;;;;;;0.67;0.60;;;10.00;99.90;;;;;;4996569;28;20416;-70
2022/01/03 06:14:25;;;;;;;0.80;0.80;;;10.00;99.90;;;;;;5005503;28;20436;-69
2022/01/03 06:16:52;;;;;;;0.70;0.60;;;10.00;99.90;;;;;;4992015;28;20973;-69
2022/01/03 06:19:18;;;;;;;1.07;0.80;;;10.00;99.90;;;;;;4992135;28;20427;-69
2022/01/03 06:21:44;;;;;;;0.70;0.60;;;10.00;99.90;;;;;;4992478;28;21002;-70
2022/01/03 06:24:16;;;;;;;0.67;0.60;;;10.00;99.90;;;;;;5000034;28;20436;-69
2022/01/03 06:26:43;;;;;;;0.70;0.60;;;10.00;99.90;;;;;;5001858;28;20461;-69
2022/01/03 06:29:10;;;;;;;0.70;0.60;;;10.10;99.90;;;;;;5014733;28;20450;-70
2022/01/03 06:31:36;;;;;;;0.70;0.60;;;10.10;99.90;;;;;;5014981;28;20411;-69
2022/01/03 06:34:03;;;;;;;0.70;0.60;;;10.10;99.90;;;;;;4995914;28;20523;-69
2022/01/03 06:36:28;;;;;;;0.67;0.60;;;10.10;99.90;;;;;;5008652;28;20970;-69
2022/01/03 06:38:55;;;;;;;0.70;0.60;;;10.10;99.90;;;;;;4996713;28;20420;-69
2022/01/03 06:41:20;;;;;;;0.70;0.63;;;10.10;99.90;;;;;;4995558;28;20184;-69
2022/01/03 06:43:46;;;;;;;0.70;0.60;;;10.00;99.90;;;;;;4995427;28;20440;-69
2022/01/03 06:46:12;;;;;;;0.70;0.60;;;10.00;99.90;;;;;;4995160;28;20255;-69
2022/01/03 06:48:38;;;;;;;0.70;0.60;;;10.00;99.90;;;;;;4995271;28;20211;-69
2022/01/03 06:51:03;;;;;;;0.70;0.60;;;10.00;99.90;;;;;;5003300;28;20661;-69
2022/01/03 06:53:29;;;;;;;0.70;0.60;;;9.90;99.90;;;;;;4995036;28;20425;-70
2022/01/03 06:55:55;;;;;;;0.80;0.80;;;9.90;99.90;;;;;;4986727;28;20182;-69
2022/01/03 06:58:21;;;;;;;0.70;0.60;;;9.90;99.90;;;;;;5000446;28;20761;-69
2022/01/03 07:00:46;;;;;;;0.70;0.60;;;10.00;99.90;;;;;;5014006;28;20430;-69
2022/01/03 07:03:12;;;;;;;0.70;0.60;;;10.00;99.90;;;;;;4996137;28;20581;-69
2022/01/03 07:05:38;;;;;;;0.70;0.60;;;10.00;99.90;;;;;;5011956;28;20370;-69
2022/01/03 07:08:04;;;;;;;2.10;1.03;;;10.00;99.90;;;;;;5012761;28;20189;-70
2022/01/03 07:10:29;;;;;;;0.67;0.50;;;10.00;99.90;;;;;;5014271;28;20181;-71
2022/01/03 07:12:55;;;;;;;0.70;0.60;;;10.00;99.90;;;;;;4994459;28;20415;-69
2022/01/03 07:20:52;;;;;;;0.70;0.60;;;10.00;99.90;;;;;;4994871;28;20427;-71
2022/01/03 07:23:19;;;;;;;0.70;0.60;;;9.90;99.90;;;;;;5007611;28;20419;-69
2022/01/03 07:25:46;;;;;;;0.70;0.60;;;9.90;99.90;;;;;;5028732;28;20423;-69
2022/01/03 07:28:13;;;;;;;0.70;0.60;;;9.90;99.90;;;;;;4997242;28;20826;-70
2022/01/03 07:30:39;;;;;;;0.70;0.60;;;9.90;99.90;;;;;;5003410;28;20419;-69
2022/01/03 07:33:04;;;;;;;0.70;0.60;;;9.80;99.90;;;;;;5005581;28;20443;-70
2022/01/03 07:35:30;;;;;;;1.40;1.30;;;9.80;99.90;;;;;;4990932;28;20725;-70
2022/01/03 07:37:56;;;;;;;0.70;0.60;;;9.70;99.90;;;;;;4996302;28;20181;-70
2022/01/03 07:40:22;;;;;;;0.70;0.60;;;9.70;99.90;;;;;;5008740;28;20173;-70
2022/01/03 07:42:47;;;;;;;0.70;0.60;;;9.70;99.90;;;;;;4996250;28;20255;-70
2022/01/03 07:45:13;;;;;;;0.90;0.73;;;9.70;99.90;;;;;;4993600;28;20491;-70
2022/01/03 07:47:39;;;;;;;0.70;0.60;;;9.70;99.90;;;;;;4996224;28;20224;-70
2022/01/03 07:50:07;;;;;;;1.33;0.90;;;9.80;99.90;;;;;;4994181;28;20455;-70
2022/01/03 07:52:33;;;;;;;0.70;0.60;;;9.80;99.90;;;;;;4994137;28;20567;-70
2022/01/03 07:54:59;;;;;;;0.70;0.60;;;9.80;99.90;;;;;;4993743;28;20678;-70
2022/01/03 07:57:24;;;;;;;0.67;0.50;;;9.90;99.90;;;;;;4994112;28;20554;-70
2022/01/03 07:59:50;;;;;;;0.70;0.60;;;9.90;99.90;;;;;;4994491;28;20188;-70
2022/01/03 08:02:16;;;;;;;0.70;0.60;;;9.90;99.90;;;;;;4993985;28;20191;-70
2022/01/03 08:04:41;;;;;;;0.70;0.60;;;9.90;99.90;;;;;;4993764;28;20201;-70
2022/01/03 08:07:07;;;;;;;0.70;0.60;;;9.90;99.90;;;;;;4993727;28;20185;-70
2022/01/03 08:09:32;;;;;;;2.20;2.00;;;9.90;99.90;;;;;;4993777;28;20612;-70
2022/01/03 08:12:00;;;;;;;0.70;0.60;;;9.90;99.90;;;;;;4990092;28;20675;-70
2022/01/03 08:14:25;;;;;;;0.67;0.60;;;10.00;99.90;;;;;;5003634;28;20198;-69
2022/01/03 08:16:51;;;;;;;0.70;0.60;;;9.90;99.90;;;;;;5013442;28;20430;-70
2022/01/03 08:19:16;;;;;;;2.93;2.20;;;9.90;99.90;;;;;;4996055;28;20177;-70
2022/01/03 08:21:42;;;;;;;1.00;0.70;;;10.00;99.90;;;;;;4993983;28;20173;-70
2022/01/03 08:24:08;;;;;;;0.67;0.60;;;10.00;99.90;;;;;;4994372;28;20237;-69
2022/01/03 08:26:35;;;;;;;0.70;0.60;;;10.00;99.90;;;;;;4990408;28;20177;-69
2022/01/03 08:29:00;;;;;;;0.70;0.60;;;10.00;99.90;;;;;;4992733;28;20247;-69
2022/01/03 08:31:26;;;;;;;0.80;0.63;;;10.10;99.90;;;;;;5006913;28;20450;-70
2022/01/03 08:33:53;;;;;;;0.67;0.60;;;10.50;99.90;;;;;;5012396;28;20669;-71
2022/01/03 08:36:20;;;;;;;0.80;0.80;;;10.70;99.90;;;;;;5012484;28;20180;-69
2022/01/03 08:38:46;;;;;;;0.67;0.60;;;10.90;99.90;;;;;;5012525;28;20423;-69
2022/01/03 08:41:11;;;;;;;0.67;0.60;;;11.20;99.90;;;;;;5012710;28;20425;-70
2022/01/03 08:43:37;;;;;;;0.70;0.60;;;11.20;99.90;;;;;;4980599;28;20447;-70
2022/01/03 08:46:03;;;;;;;0.70;0.60;;;11.10;99.90;;;;;;4995287;28;20186;-70
2022/01/03 08:48:28;;;;;;;4.80;2.80;;;11.10;99.90;;;;;;5012271;28;20211;-70
2022/01/03 08:50:54;;;;;;;0.70;0.60;;;11.10;99.90;;;;;;4994857;28;20181;-69
2022/01/03 08:53:26;;;;;;;0.80;0.80;;;11.10;99.90;;;;;;4992925;28;20239;-70
2022/01/03 08:55:54;;;;;;;0.67;0.60;;;11.00;99.90;;;;;;4992924;28;20427;-70
2022/01/03 08:58:19;;;;;;;0.70;0.60;;;10.90;99.90;;;;;;4992442;28;20430;-69
2022/01/03 09:00:46;;;;;;;0.70;0.60;;;10.80;99.90;;;;;;4992972;28;20518;-71
2022/01/03 09:03:12;;;;;;;0.67;0.60;;;10.90;99.90;;;;;;4992937;28;20216;-71
2022/01/03 09:05:38;;;;;;;0.70;0.60;;;11.00;99.90;;;;;;4992657;28;20462;-71
2022/01/03 09:08:04;;;;;;;2.70;0.80;;;11.10;99.90;;;;;;5007576;28;20463;-70
2022/01/03 09:10:30;;;;;;;0.70;0.60;;;11.10;99.90;;;;;;4992916;28;20438;-69
2022/01/03 09:12:56;;;;;;;0.70;0.70;;;11.20;99.90;;;;;;5002490;28;20423;-70
2022/01/03 09:15:22;;;;;;;0.70;0.70;;;11.50;99.90;;;;;;4996109;28;20444;-69
2022/01/03 09:17:48;;;;;;;0.70;0.60;;;11.60;99.90;;;;;;4992702;28;20424;-69
2022/01/03 09:20:14;;;;;;;9.87;1.43;;;11.80;99.90;;;;;;4992731;28;20212;-70
2022/01/03 09:22:41;;;;;;;0.67;0.60;;;12.00;99.90;;;;;;4992622;28;20185;-70
2022/01/03 09:30:30;;;;;;;0.70;0.60;;;11.90;99.90;;;;;;4987999;28;20430;-69
2022/01/03 09:32:56;;;;;;;0.70;0.60;;;11.80;99.90;;;;;;4992680;28;20793;-69
2022/01/03 09:35:22;;;;;;;1.20;1.10;;;11.90;99.90;;;;;;4992207;28;20443;-70
2022/01/03 09:37:48;;;;;;;0.70;0.60;;;11.70;99.90;;;;;;4990983;28;20589;-71
2022/01/03 09:40:14;;;;;;;3.77;1.80;;;11.70;99.90;;;;;;5002278;28;20266;-70
2022/01/03 09:42:42;;;;;;;0.70;0.70;;;11.50;99.90;;;;;;5012709;28;20435;-70
2022/01/03 09:45:11;;;;;;;0.70;0.60;;;11.50;99.90;;;;;;4990481;28;20787;-71
2022/01/03 09:47:39;;;;;;;0.70;0.60;;;11.50;99.90;;;;;;4992377;28;20428;-70
2022/01/03 09:50:06;;;;;;;0.70;0.70;;;11.60;99.90;;;;;;4993010;28;20456;-70
2022/01/03 09:52:33;;;;;;;0.70;0.60;;;11.70;99.90;;;;;;4992703;28;20431;-71
2022/01/03 09:55:00;;;;;;;0.70;0.60;;;11.90;99.90;;;;;;4990269;28;20502;-70
2022/01/03 09:57:28;;;;;;;0.70;0.60;;;11.80;99.90;;;;;;4992925;28;20857;-70
2022/01/03 09:59:54;;;;;;;0.70;0.60;;;11.70;99.90;;;;;;4993287;28;20419;-70
2022/01/03 10:02:21;;;;;;;0.70;0.60;;;11.70;99.90;;;;;;4994273;28;20768;-70
2022/01/03 10:04:48;;;;;;;0.70;0.60;;;11.70;99.90;;;;;;4995623;28;20444;-71
2022/01/03 10:07:14;;;;;;;0.70;0.60;;;11.80;99.90;;;;;;4995815;28;20420;-70
2022/01/03 10:09:43;;;;;;;1.00;1.00;;;11.90;99.90;;;;;;4995944;28;20491;-70
2022/01/03 10:12:12;;;;;;;0.70;0.60;;;12.10;99.90;;;;;;4988604;28;20466;-71
2022/01/03 10:14:37;;;;;;;0.70;0.60;;;12.20;99.90;;;;;;4992965;28;20439;-71
2022/01/03 10:17:03;;;;;;;0.70;0.70;;;12.20;99.90;;;;;;4987486;28;20482;-70
2022/01/03 10:19:29;;;;;;;0.70;0.60;;;12.20;99.90;;;;;;4995567;28;20431;-69
2022/01/03 10:21:54;;;;;;;0.70;0.60;;;12.20;99.90;;;;;;4995526;28;20177;-70
2022/01/03 10:24:36;;;;;;;1.73;0.80;;;12.20;99.90;;;;;;4995900;28;20822;-70
2022/01/03 10:27:02;;;;;;;0.70;0.60;;;12.40;99.90;;;;;;4995221;28;20260;-69
2022/01/03 10:29:31;;;;;;;0.70;0.60;;;12.50;99.90;;;;;;4985189;28;20818;-70
2022/01/03 10:31:59;;;;;;;1.10;0.90;;;12.60;99.90;;;;;;4994157;28;20471;-69
2022/01/03 10:34:25;;;;;;;0.70;0.60;;;12.70;99.90;;;;;;4995458;28;20846;-69
2022/01/03 10:36:54;;;;;;;0.70;0.70;;;12.70;99.90;;;;;;4994840;28;20423;-69
2022/01/03 10:39:24;;;;;;;0.70;0.60;;;12.70;99.90;;;;;;4994084;28;20806;-69
2022/01/03 10:42:17;;;;;;;0.70;0.60;;;12.60;99.90;;;;;;4995159;28;20431;-69
2022/01/03 10:44:44;;;;;;;0.70;0.60;;;12.60;99.90;;;;;;4990173;28;20487;-70
2022/01/03 10:47:14;;;;;;;0.70;0.60;;;12.40;99.90;;;;;;4995149;28;20423;-70
2022/01/03 10:49:41;;;;;;;0.70;0.60;;;12.20;99.90;;;;;;4995221;28;21058;-70
2022/01/03 10:52:18;;;;;;;0.70;0.60;;;12.10;99.90;;;;;;4995290;28;20793;-70
2022/01/03 10:55:04;;;;;;;0.70;0.60;;;12.00;99.90;;;;;;4994887;28;20465;-70
2022/01/03 10:58:00;;;;;;;0.70;0.60;;;11.90;99.90;;;;;;4995405;28;20436;-70
2022/01/03 11:00:34;;;;;;;0.70;0.70;;;11.70;99.90;;;;;;4994586;28;20408;-71
2022/01/03 11:03:27;;;;;;;0.70;0.70;;;11.80;99.90;;;;;;4993669;28;20420;-71
2022/01/03 11:05:59;;;;;;;0.80;0.70;;;11.90;99.90;;;;;;4994554;28;20514;-70
2022/01/03 11:11:14;;;;;;;1.53;1.43;;;12.20;99.90;;;;;;4994810;28;20777;-70
2022/01/03 11:13:43;;;;;;;4.23;1.77;;;12.20;99.90;;;;;;4993313;28;20434;-70
2022/01/03 11:16:10;;;;;;;0.93;0.93;;;12.30;99.90;;;;;;4993611;28;20514;-70
2022/01/03 11:18:46;;;;;;;0.70;0.60;;;12.30;99.90;;;;;;4993022;28;20515;-70
2022/01/03 11:21:17;;;;;;;0.70;0.60;;;12.30;99.90;;;;;;5001537;28;20444;-70
2022/01/03 11:23:53;;;;;;;0.70;0.60;;;12.10;99.90;;;;;;5014412;28;20469;-70
2022/01/03 11:26:20;;;;;;;0.70;0.60;;;12.10;99.90;;;;;;4998674;28;20428;-70
2022/01/03 11:28:49;;;;;;;0.70;0.60;;;12.00;99.90;;;;;;4994202;28;20455;-70
2022/01/03 11:31:17;;;;;;;0.80;0.70;;;12.00;99.90;;;;;;4993278;28;20424;-69
2022/01/03 11:33:46;;;;;;;0.70;0.60;;;12.00;99.90;;;;;;4994121;28;20515;-70
2022/01/03 11:36:12;;;;;;;0.70;0.60;;;12.00;99.90;;;;;;4994321;28;20513;-70
2022/01/03 11:38:40;;;;;;;0.70;0.60;;;11.90;99.90;;;;;;4997372;28;20426;-70
2022/01/03 11:41:09;;;;;;;0.70;0.60;;;11.80;99.90;;;;;;5010102;28;21030;-70
2022/01/03 11:43:35;;;;;;;0.70;0.60;;;11.80;99.90;;;;;;4994373;28;21071;-70
2022/01/03 11:46:02;;;;;;;0.70;0.60;;;11.60;99.90;;;;;;4994150;28;20776;-71
2022/01/03 11:48:29;;;;;;;0.70;0.60;;;11.60;99.90;;;;;;4994121;28;20977;-70
2022/01/03 11:50:56;;;;;;;0.70;0.67;;;11.50;99.90;;;;;;4994775;28;20483;-70
2022/01/03 11:53:23;;;;;;;0.70;0.60;;;11.40;99.90;;;;;;4993774;28;20424;-70
2022/01/03 11:55:57;;;;;;;0.70;0.60;;;11.50;99.90;;;;;;4992120;28;20462;-71
2022/01/03 12:04:11;;;;;;;0.70;0.60;;;11.50;99.90;;;;;;4993768;28;20451;-70
2022/01/03 12:06:37;;;;;;;0.70;0.60;;;11.60;99.90;;;;;;4993594;28;20777;-72
2022/01/03 12:09:09;;;;;;;1.53;0.80;;;11.60;99.90;;;;;;4993482;28;20613;-70
2022/01/03 12:11:46;;;;;;;0.70;0.60;;;11.60;99.90;;;;;;4993902;28;20419;-70
2022/01/03 12:14:14;;;;;;;0.70;0.60;;;11.60;99.90;;;;;;4989926;28;20493;-70
2022/01/03 12:16:54;;;;;;;0.70;0.60;;;11.60;99.90;;;;;;4993333;28;20424;-70
2022/01/03 12:19:43;;;;;;;0.70;0.60;;;11.70;99.90;;;;;;4993623;28;20969;-69
2022/01/03 12:22:15;;;;;;;0.70;0.60;;;11.70;99.90;;;;;;4991510;28;20965;-69
2022/01/03 12:24:46;;;;;;;0.70;0.60;;;11.80;99.90;;;;;;4991477;28;20448;-68
2022/01/03 12:27:12;;;;;;;0.70;0.67;;;11.70;99.90;;;;;;4993284;28;20420;-70
2022/01/03 12:29:52;;;;;;;0.70;0.60;;;11.70;99.90;;;;;;4993448;28;21036;-68
2022/01/03 12:32:18;;;;;;;0.70;0.60;;;11.70;99.90;;;;;;4992037;28;20180;-69
2022/01/03 12:34:44;;;;;;;2.17;0.80;;;11.70;99.90;;;;;;4993002;28;20444;-68
2022/01/03 12:37:22;;;;;;;0.70;0.60;;;11.70;99.90;;;;;;4993074;28;20184;-71
2022/01/03 12:40:06;;;;;;;0.70;0.60;;;11.80;99.90;;;;;;4993051;28;20244;-70
2022/01/03 12:42:51;;;;;;;0.70;0.60;;;11.80;99.90;;;;;;4993106;28;20424;-70
2022/01/03 12:45:28;;;;;;;0.70;0.60;;;11.80;99.90;;;;;;4991267;28;20459;-70
2022/01/03 12:47:54;;;;;;;0.70;0.60;;;11.80;99.90;;;;;;4992704;28;20455;-70
2022/01/03 12:50:25;;;;;;;0.73;0.73;;;11.80;99.90;;;;;;4992978;28;20431;-70
2022/01/03 12:52:52;;;;;;;0.70;0.50;;;11.80;99.90;;;;;;4991244;28;20467;-70
2022/01/03 12:55:36;;;;;;;0.70;0.60;;;11.80;99.90;;;;;;4992512;28;20444;-71
2022/01/03 12:58:03;;;;;;;0.70;0.60;;;11.90;99.90;;;;;;4993002;28;20773;-71
2022/01/03 13:00:39;;;;;;;0.80;0.77;;;11.80;99.90;;;;;;4991626;28;20427;-70
2022/01/03 13:03:23;;;;;;;0.70;0.60;;;11.70;99.90;;;;;;4992729;28;20420;-69
2022/01/03 13:06:13;;;;;;;0.70;0.60;;;11.70;99.90;;;;;;4992496;28;20454;-70
2022/01/03 13:08:59;;;;;;;0.70;0.60;;;11.50;99.90;;;;;;4991365;28;20853;-70
2022/01/03 13:11:31;;;;;;;0.70;0.60;;;11.70;99.90;;;;;;4979369;28;20442;-69
2022/01/03 13:14:04;;;;;;;0.83;0.83;;;11.60;99.90;;;;;;4992803;28;20436;-70
2022/01/03 13:17:01;;;;;;;1.73;1.63;;;11.60;99.90;;;;;;4991829;28;20789;-70